Platter, Oklahoma
Current Conditions -  °F | °C
As of 3:15 PM on Tuesday 21 Oct 2014 (Local Time) from KDUA Reporting Station
Scattered Clouds Scattered Clouds  
Wind Chill: 82°   Ceiling: Unl
Heat Index: 83°   Visibility: 10mi
Dew Point: 61°   Wind: 7mph
Humidity: 48%   Direction: 140°SE
Pressure: 30.05"   Gusts: NA
Location:  33.91°N, 96.53°W
Report Text: KDUA 212015Z AUTO 14006KT 10SM SCT043 28/16 A3005 RMK AO2
Loading
Personal Weather Stations






























Interactive Weather Map
Tropical Storm Tracking
New forecast layout! Learn more

10-Day Weather Forecast

Advertisements
Track Severe Weather on mobile